sensor_id;sensor_type;location;lat;lon;timestamp;temperature;humidity
53314;DHT22;39202;51.468;7.146;2022-07-03T00:04:43;31.60;37.50
53314;DHT22;39202;51.468;7.146;2022-07-03T00:09:46;31.60;37.60
53314;DHT22;39202;51.468;7.146;2022-07-03T00:14:48;31.60;37.60
53314;DHT22;39202;51.468;7.146;2022-07-03T00:19:51;31.60;37.60
53314;DHT22;39202;51.468;7.146;2022-07-03T00:25:00;31.60;37.60
53314;DHT22;39202;51.468;7.146;2022-07-03T00:30:04;31.60;37.60
53314;DHT22;39202;51.468;7.146;2022-07-03T00:35:06;31.60;37.60
53314;DHT22;39202;51.468;7.146;2022-07-03T00:40:11;31.50;37.50
53314;DHT22;39202;51.468;7.146;2022-07-03T00:45:16;31.50;37.50
53314;DHT22;39202;51.468;7.146;2022-07-03T00:50:24;31.50;37.50
53314;DHT22;39202;51.468;7.146;2022-07-03T00:55:28;31.50;37.60
53314;DHT22;39202;51.468;7.146;2022-07-03T01:00:31;31.50;37.60
53314;DHT22;39202;51.468;7.146;2022-07-03T01:05:36;31.50;38.00
53314;DHT22;39202;51.468;7.146;2022-07-03T01:10:49;31.50;37.70
53314;DHT22;39202;51.468;7.146;2022-07-03T01:16:00;31.50;37.70
53314;DHT22;39202;51.468;7.146;2022-07-03T01:21:07;31.50;37.70
53314;DHT22;39202;51.468;7.146;2022-07-03T01:26:12;31.20;37.50
53314;DHT22;39202;51.468;7.146;2022-07-03T01:31:18;31.50;37.70
53314;DHT22;39202;51.468;7.146;2022-07-03T01:36:21;31.40;37.70
53314;DHT22;39202;51.468;7.146;2022-07-03T01:41:29;31.50;37.70
53314;DHT22;39202;51.468;7.146;2022-07-03T01:46:32;31.50;37.80
53314;DHT22;39202;51.468;7.146;2022-07-03T01:51:34;31.40;37.70
53314;DHT22;39202;51.468;7.146;2022-07-03T01:56:39;31.40;37.70
53314;DHT22;39202;51.468;7.146;2022-07-03T02:01:45;31.40;37.70
53314;DHT22;39202;51.468;7.146;2022-07-03T02:06:54;31.40;37.80
53314;DHT22;39202;51.468;7.146;2022-07-03T02:12:02;31.30;38.40
53314;DHT22;39202;51.468;7.146;2022-07-03T02:17:15;31.40;37.80
53314;DHT22;39202;51.468;7.146;2022-07-03T02:22:20;31.30;37.80
53314;DHT22;39202;51.468;7.146;2022-07-03T02:27:25;31.30;37.80
53314;DHT22;39202;51.468;7.146;2022-07-03T02:32:33;31.30;37.80
53314;DHT22;39202;51.468;7.146;2022-07-03T02:37:41;31.30;37.80
53314;DHT22;39202;51.468;7.146;2022-07-03T02:42:56;31.30;37.80
53314;DHT22;39202;51.468;7.146;2022-07-03T02:48:05;31.30;37.90
53314;DHT22;39202;51.468;7.146;2022-07-03T02:53:15;31.30;37.90
53314;DHT22;39202;51.468;7.146;2022-07-03T02:58:31;31.30;37.90
53314;DHT22;39202;51.468;7.146;2022-07-03T03:03:34;31.30;37.90
53314;DHT22;39202;51.468;7.146;2022-07-03T03:08:42;31.30;37.90
53314;DHT22;39202;51.468;7.146;2022-07-03T03:13:50;31.20;37.80
53314;DHT22;39202;51.468;7.146;2022-07-03T03:18:52;31.20;37.90
53314;DHT22;39202;51.468;7.146;2022-07-03T03:23:53;31.20;37.80
53314;DHT22;39202;51.468;7.146;2022-07-03T03:28:56;31.20;37.90
53314;DHT22;39202;51.468;7.146;2022-07-03T03:33:59;31.20;37.90
53314;DHT22;39202;51.468;7.146;2022-07-03T03:39:01;31.20;37.90
53314;DHT22;39202;51.468;7.146;2022-07-03T03:44:04;31.20;37.90
53314;DHT22;39202;51.468;7.146;2022-07-03T03:49:06;31.20;37.90
53314;DHT22;39202;51.468;7.146;2022-07-03T03:54:08;31.20;37.90
53314;DHT22;39202;51.468;7.146;2022-07-03T03:59:11;31.20;37.90
53314;DHT22;39202;51.468;7.146;2022-07-03T04:04:13;31.20;38.00
53314;DHT22;39202;51.468;7.146;2022-07-03T04:09:17;31.10;37.90
53314;DHT22;39202;51.468;7.146;2022-07-03T04:14:20;31.20;38.00
53314;DHT22;39202;51.468;7.146;2022-07-03T04:19:22;31.20;38.00
53314;DHT22;39202;51.468;7.146;2022-07-03T04:24:24;31.10;38.00
53314;DHT22;39202;51.468;7.146;2022-07-03T04:29:27;31.10;38.00
53314;DHT22;39202;51.468;7.146;2022-07-03T04:34:29;31.10;38.00
53314;DHT22;39202;51.468;7.146;2022-07-03T04:39:30;31.10;38.00
53314;DHT22;39202;51.468;7.146;2022-07-03T04:44:33;31.10;38.00
53314;DHT22;39202;51.468;7.146;2022-07-03T04:49:35;31.10;38.00
53314;DHT22;39202;51.468;7.146;2022-07-03T04:54:37;31.20;38.00
53314;DHT22;39202;51.468;7.146;2022-07-03T04:59:40;31.20;38.00
53314;DHT22;39202;51.468;7.146;2022-07-03T05:04:42;31.20;38.00
53314;DHT22;39202;51.468;7.146;2022-07-03T05:09:43;31.10;38.00
53314;DHT22;39202;51.468;7.146;2022-07-03T05:14:46;31.10;38.00
53314;DHT22;39202;51.468;7.146;2022-07-03T05:19:48;31.20;38.00
53314;DHT22;39202;51.468;7.146;2022-07-03T05:25:10;31.20;37.90
53314;DHT22;39202;51.468;7.146;2022-07-03T05:30:13;31.30;38.00
53314;DHT22;39202;51.468;7.146;2022-07-03T05:35:15;31.30;38.10
53314;DHT22;39202;51.468;7.146;2022-07-03T05:40:17;31.30;38.00
53314;DHT22;39202;51.468;7.146;2022-07-03T05:45:20;31.30;38.00
53314;DHT22;39202;51.468;7.146;2022-07-03T05:50:22;31.40;38.10
53314;DHT22;39202;51.468;7.146;2022-07-03T05:55:24;31.50;38.00
53314;DHT22;39202;51.468;7.146;2022-07-03T06:00:27;31.50;37.90
53314;DHT22;39202;51.468;7.146;2022-07-03T06:05:29;31.60;37.90
53314;DHT22;39202;51.468;7.146;2022-07-03T06:10:31;31.70;37.90
53314;DHT22;39202;51.468;7.146;2022-07-03T06:15:34;31.70;37.80
53314;DHT22;39202;51.468;7.146;2022-07-03T06:20:36;31.80;37.70
53314;DHT22;39202;51.468;7.146;2022-07-03T06:25:38;31.90;37.80
53314;DHT22;39202;51.468;7.146;2022-07-03T06:30:41;31.90;37.80
53314;DHT22;39202;51.468;7.146;2022-07-03T06:35:42;32.00;37.70
53314;DHT22;39202;51.468;7.146;2022-07-03T06:40:44;32.00;37.60
53314;DHT22;39202;51.468;7.146;2022-07-03T06:45:47;32.10;37.60
53314;DHT22;39202;51.468;7.146;2022-07-03T06:50:49;32.10;38.20
53314;DHT22;39202;51.468;7.146;2022-07-03T06:55:50;32.20;37.50
53314;DHT22;39202;51.468;7.146;2022-07-03T07:00:53;32.20;37.50
53314;DHT22;39202;51.468;7.146;2022-07-03T07:05:55;32.30;37.50
53314;DHT22;39202;51.468;7.146;2022-07-03T07:10:57;32.30;37.40
53314;DHT22;39202;51.468;7.146;2022-07-03T07:16:00;32.30;37.40
53314;DHT22;39202;51.468;7.146;2022-07-03T07:21:02;32.40;37.40
53314;DHT22;39202;51.468;7.146;2022-07-03T07:26:04;32.50;37.30
53314;DHT22;39202;51.468;7.146;2022-07-03T07:31:08;32.50;37.30
53314;DHT22;39202;51.468;7.146;2022-07-03T07:36:09;32.60;37.20
53314;DHT22;39202;51.468;7.146;2022-07-03T07:41:11;32.60;37.20
53314;DHT22;39202;51.468;7.146;2022-07-03T07:46:14;32.70;37.20
53314;DHT22;39202;51.468;7.146;2022-07-03T07:51:16;32.70;37.10
53314;DHT22;39202;51.468;7.146;2022-07-03T07:56:18;32.80;37.10
53314;DHT22;39202;51.468;7.146;2022-07-03T08:01:21;32.90;37.10
53314;DHT22;39202;51.468;7.146;2022-07-03T08:06:40;32.90;37.70
53314;DHT22;39202;51.468;7.146;2022-07-03T08:11:41;33.00;37.00
53314;DHT22;39202;51.468;7.146;2022-07-03T08:16:45;33.10;36.90
53314;DHT22;39202;51.468;7.146;2022-07-03T08:21:47;33.10;36.90
53314;DHT22;39202;51.468;7.146;2022-07-03T08:26:48;33.10;36.80
53314;DHT22;39202;51.468;7.146;2022-07-03T08:31:51;33.20;36.80
53314;DHT22;39202;51.468;7.146;2022-07-03T08:36:53;33.30;36.80
53314;DHT22;39202;51.468;7.146;2022-07-03T08:41:56;33.30;36.70
53314;DHT22;39202;51.468;7.146;2022-07-03T08:46:59;33.40;36.70
53314;DHT22;39202;51.468;7.146;2022-07-03T08:52:04;33.40;36.50
53314;DHT22;39202;51.468;7.146;2022-07-03T08:57:07;33.50;36.50
53314;DHT22;39202;51.468;7.146;2022-07-03T09:02:13;33.50;36.40
53314;DHT22;39202;51.468;7.146;2022-07-03T09:07:17;33.70;36.50
53314;DHT22;39202;51.468;7.146;2022-07-03T09:12:20;33.70;36.40
53314;DHT22;39202;51.468;7.146;2022-07-03T09:17:23;33.70;36.30
53314;DHT22;39202;51.468;7.146;2022-07-03T09:22:26;33.80;36.30
53314;DHT22;39202;51.468;7.146;2022-07-03T09:27:28;33.80;36.30
53314;DHT22;39202;51.468;7.146;2022-07-03T09:32:41;33.80;36.10
53314;DHT22;39202;51.468;7.146;2022-07-03T09:37:48;33.90;36.00
53314;DHT22;39202;51.468;7.146;2022-07-03T09:42:57;33.90;36.00
53314;DHT22;39202;51.468;7.146;2022-07-03T09:48:01;34.00;36.00
53314;DHT22;39202;51.468;7.146;2022-07-03T09:53:03;34.00;36.00
53314;DHT22;39202;51.468;7.146;2022-07-03T09:58:05;34.00;35.90
53314;DHT22;39202;51.468;7.146;2022-07-03T10:03:09;34.00;35.90
53314;DHT22;39202;51.468;7.146;2022-07-03T10:08:13;34.10;35.80
53314;DHT22;39202;51.468;7.146;2022-07-03T10:13:16;34.10;35.60
53314;DHT22;39202;51.468;7.146;2022-07-03T10:18:20;34.20;35.70
53314;DHT22;39202;51.468;7.146;2022-07-03T10:23:23;34.20;35.50
53314;DHT22;39202;51.468;7.146;2022-07-03T10:28:26;34.20;35.50
53314;DHT22;39202;51.468;7.146;2022-07-03T10:33:30;34.20;35.50
53314;DHT22;39202;51.468;7.146;2022-07-03T10:38:37;34.30;35.60
53314;DHT22;39202;51.468;7.146;2022-07-03T10:43:42;34.30;35.40
53314;DHT22;39202;51.468;7.146;2022-07-03T10:49:05;34.30;35.40
53314;DHT22;39202;51.468;7.146;2022-07-03T10:54:17;34.40;35.40
53314;DHT22;39202;51.468;7.146;2022-07-03T10:59:19;34.40;35.40
53314;DHT22;39202;51.468;7.146;2022-07-03T11:04:22;34.40;35.30
53314;DHT22;39202;51.468;7.146;2022-07-03T11:09:24;34.40;35.20
53314;DHT22;39202;51.468;7.146;2022-07-03T11:14:27;34.40;35.10
53314;DHT22;39202;51.468;7.146;2022-07-03T11:19:31;34.40;35.10
53314;DHT22;39202;51.468;7.146;2022-07-03T11:24:39;34.40;35.10
53314;DHT22;39202;51.468;7.146;2022-07-03T11:29:55;34.40;35.10
53314;DHT22;39202;51.468;7.146;2022-07-03T11:34:58;34.40;35.00
53314;DHT22;39202;51.468;7.146;2022-07-03T11:40:02;34.50;35.10
53314;DHT22;39202;51.468;7.146;2022-07-03T11:45:07;34.50;35.10
53314;DHT22;39202;51.468;7.146;2022-07-03T11:50:11;34.50;35.10
53314;DHT22;39202;51.468;7.146;2022-07-03T11:55:13;34.60;35.10
53314;DHT22;39202;51.468;7.146;2022-07-03T12:00:15;34.60;35.10
53314;DHT22;39202;51.468;7.146;2022-07-03T12:05:18;34.60;35.00
53314;DHT22;39202;51.468;7.146;2022-07-03T12:10:19;34.60;34.80
53314;DHT22;39202;51.468;7.146;2022-07-03T12:15:21;34.60;34.90
53314;DHT22;39202;51.468;7.146;2022-07-03T12:20:24;34.60;34.80
53314;DHT22;39202;51.468;7.146;2022-07-03T12:25:29;34.60;34.70
53314;DHT22;39202;51.468;7.146;2022-07-03T12:30:31;34.60;34.60
53314;DHT22;39202;51.468;7.146;2022-07-03T12:35:35;34.60;34.70
53314;DHT22;39202;51.468;7.146;2022-07-03T12:40:36;34.60;34.60
53314;DHT22;39202;51.468;7.146;2022-07-03T12:45:39;34.60;34.60
53314;DHT22;39202;51.468;7.146;2022-07-03T12:50:46;34.60;34.50
53314;DHT22;39202;51.468;7.146;2022-07-03T12:55:48;34.60;34.40
53314;DHT22;39202;51.468;7.146;2022-07-03T13:00:50;34.60;34.50
53314;DHT22;39202;51.468;7.146;2022-07-03T13:05:53;34.60;34.40
53314;DHT22;39202;51.468;7.146;2022-07-03T13:10:56;34.60;34.30
53314;DHT22;39202;51.468;7.146;2022-07-03T13:15:58;34.60;34.40
53314;DHT22;39202;51.468;7.146;2022-07-03T13:21:01;34.50;34.20
53314;DHT22;39202;51.468;7.146;2022-07-03T13:26:02;34.60;34.30
53314;DHT22;39202;51.468;7.146;2022-07-03T13:31:04;34.60;34.20
53314;DHT22;39202;51.468;7.146;2022-07-03T13:36:07;34.50;34.20
53314;DHT22;39202;51.468;7.146;2022-07-03T13:41:09;34.50;34.20
53314;DHT22;39202;51.468;7.146;2022-07-03T13:46:11;34.40;34.20
53314;DHT22;39202;51.468;7.146;2022-07-03T13:51:14;34.40;34.20
53314;DHT22;39202;51.468;7.146;2022-07-03T13:56:17;34.40;34.20
53314;DHT22;39202;51.468;7.146;2022-07-03T14:01:18;34.40;34.20
53314;DHT22;39202;51.468;7.146;2022-07-03T14:06:21;34.30;34.10
53314;DHT22;39202;51.468;7.146;2022-07-03T14:11:23;34.30;34.10
53314;DHT22;39202;51.468;7.146;2022-07-03T14:16:25;34.30;34.10
53314;DHT22;39202;51.468;7.146;2022-07-03T14:21:28;34.30;34.80
53314;DHT22;39202;51.468;7.146;2022-07-03T14:26:30;34.20;34.20
53314;DHT22;39202;51.468;7.146;2022-07-03T14:31:49;34.10;34.10
53314;DHT22;39202;51.468;7.146;2022-07-03T14:37:12;34.10;34.10
53314;DHT22;39202;51.468;7.146;2022-07-03T14:42:16;34.10;34.00
53314;DHT22;39202;51.468;7.146;2022-07-03T14:47:18;34.00;34.00
53314;DHT22;39202;51.468;7.146;2022-07-03T14:52:22;34.00;34.00
53314;DHT22;39202;51.468;7.146;2022-07-03T14:57:26;34.00;33.90
53314;DHT22;39202;51.468;7.146;2022-07-03T15:02:43;33.90;33.90
53314;DHT22;39202;51.468;7.146;2022-07-03T15:07:56;33.90;33.90
53314;DHT22;39202;51.468;7.146;2022-07-03T15:13:03;33.90;33.90
53314;DHT22;39202;51.468;7.146;2022-07-03T15:18:06;33.80;33.80
53314;DHT22;39202;51.468;7.146;2022-07-03T15:23:10;33.80;34.00
53314;DHT22;39202;51.468;7.146;2022-07-03T15:28:12;33.80;33.60
53314;DHT22;39202;51.468;7.146;2022-07-03T15:33:15;33.70;33.10
53314;DHT22;39202;51.468;7.146;2022-07-03T15:38:21;33.60;33.00
53314;DHT22;39202;51.468;7.146;2022-07-03T15:43:49;33.40;32.70
53314;DHT22;39202;51.468;7.146;2022-07-03T15:49:19;33.30;33.20
53314;DHT22;39202;51.468;7.146;2022-07-03T15:54:29;33.10;32.50
53314;DHT22;39202;51.468;7.146;2022-07-03T15:59:35;33.00;32.70
53314;DHT22;39202;51.468;7.146;2022-07-03T16:04:47;32.80;32.80
53314;DHT22;39202;51.468;7.146;2022-07-03T16:09:56;32.70;32.90
53314;DHT22;39202;51.468;7.146;2022-07-03T16:15:00;32.70;33.10
53314;DHT22;39202;51.468;7.146;2022-07-03T16:20:05;32.60;33.40
53314;DHT22;39202;51.468;7.146;2022-07-03T16:25:09;32.60;33.50
53314;DHT22;39202;51.468;7.146;2022-07-03T16:30:11;32.60;33.60
53314;DHT22;39202;51.468;7.146;2022-07-03T16:35:16;32.60;33.80
53314;DHT22;39202;51.468;7.146;2022-07-03T16:40:24;32.60;33.80
53314;DHT22;39202;51.468;7.146;2022-07-03T16:45:30;32.70;33.90
53314;DHT22;39202;51.468;7.146;2022-07-03T16:50:32;32.70;33.90
53314;DHT22;39202;51.468;7.146;2022-07-03T16:55:35;32.80;34.00
53314;DHT22;39202;51.468;7.146;2022-07-03T17:00:37;32.80;34.10
53314;DHT22;39202;51.468;7.146;2022-07-03T17:05:40;32.70;34.70
53314;DHT22;39202;51.468;7.146;2022-07-03T17:10:43;32.70;34.10
53314;DHT22;39202;51.468;7.146;2022-07-03T17:15:46;32.70;34.20
53314;DHT22;39202;51.468;7.146;2022-07-03T17:20:48;32.80;34.30
53314;DHT22;39202;51.468;7.146;2022-07-03T17:25:55;32.80;34.30
53314;DHT22;39202;51.468;7.146;2022-07-03T17:30:59;32.80;34.40
53314;DHT22;39202;51.468;7.146;2022-07-03T17:36:05;32.70;34.30
53314;DHT22;39202;51.468;7.146;2022-07-03T17:41:08;32.70;34.40
53314;DHT22;39202;51.468;7.146;2022-07-03T17:46:12;32.70;34.40
53314;DHT22;39202;51.468;7.146;2022-07-03T17:51:16;32.80;34.50
53314;DHT22;39202;51.468;7.146;2022-07-03T17:56:22;32.70;34.50
53314;DHT22;39202;51.468;7.146;2022-07-03T18:01:24;32.70;34.50
53314;DHT22;39202;51.468;7.146;2022-07-03T18:06:28;32.70;34.50
53314;DHT22;39202;51.468;7.146;2022-07-03T18:11:38;32.70;34.50
53314;DHT22;39202;51.468;7.146;2022-07-03T18:16:44;32.70;34.60
53314;DHT22;39202;51.468;7.146;2022-07-03T18:21:46;32.70;34.60
53314;DHT22;39202;51.468;7.146;2022-07-03T18:26:54;32.70;34.60
53314;DHT22;39202;51.468;7.146;2022-07-03T18:31:58;32.70;34.70
53314;DHT22;39202;51.468;7.146;2022-07-03T18:37:01;32.70;34.70
53314;DHT22;39202;51.468;7.146;2022-07-03T18:42:05;32.60;34.70
53314;DHT22;39202;51.468;7.146;2022-07-03T18:47:07;32.70;34.80
53314;DHT22;39202;51.468;7.146;2022-07-03T18:52:16;32.60;34.80
53314;DHT22;39202;51.468;7.146;2022-07-03T18:57:24;32.60;34.90
53314;DHT22;39202;51.468;7.146;2022-07-03T19:02:29;32.60;34.90
53314;DHT22;39202;51.468;7.146;2022-07-03T19:07:38;32.50;34.80
53314;DHT22;39202;51.468;7.146;2022-07-03T19:12:47;32.50;35.00
53314;DHT22;39202;51.468;7.146;2022-07-03T19:17:51;32.50;35.00
53314;DHT22;39202;51.468;7.146;2022-07-03T19:22:53;32.50;34.90
53314;DHT22;39202;51.468;7.146;2022-07-03T19:27:56;32.50;35.00
53314;DHT22;39202;51.468;7.146;2022-07-03T19:32:58;32.50;35.10
53314;DHT22;39202;51.468;7.146;2022-07-03T19:38:00;32.50;35.00
53314;DHT22;39202;51.468;7.146;2022-07-03T19:43:05;32.50;35.10
53314;DHT22;39202;51.468;7.146;2022-07-03T19:48:07;32.50;35.10
53314;DHT22;39202;51.468;7.146;2022-07-03T19:53:08;32.40;35.00
53314;DHT22;39202;51.468;7.146;2022-07-03T19:58:11;32.50;35.20
53314;DHT22;39202;51.468;7.146;2022-07-03T20:03:13;32.40;35.10
53314;DHT22;39202;51.468;7.146;2022-07-03T20:08:16;32.40;35.20
53314;DHT22;39202;51.468;7.146;2022-07-03T20:13:19;32.40;35.20
53314;DHT22;39202;51.468;7.146;2022-07-03T20:18:23;32.40;35.20
53314;DHT22;39202;51.468;7.146;2022-07-03T20:23:24;32.30;35.20
53314;DHT22;39202;51.468;7.146;2022-07-03T20:28:28;32.40;35.30
53314;DHT22;39202;51.468;7.146;2022-07-03T20:33:29;32.30;35.30
53314;DHT22;39202;51.468;7.146;2022-07-03T20:38:31;32.30;35.30
53314;DHT22;39202;51.468;7.146;2022-07-03T20:43:34;32.30;35.40
53314;DHT22;39202;51.468;7.146;2022-07-03T20:48:37;32.30;35.40
53314;DHT22;39202;51.468;7.146;2022-07-03T20:53:38;32.30;35.40
53314;DHT22;39202;51.468;7.146;2022-07-03T20:58:42;32.20;35.40
53314;DHT22;39202;51.468;7.146;2022-07-03T21:03:43;32.30;35.50
53314;DHT22;39202;51.468;7.146;2022-07-03T21:08:46;32.20;35.50
53314;DHT22;39202;51.468;7.146;2022-07-03T21:13:49;32.20;35.50
53314;DHT22;39202;51.468;7.146;2022-07-03T21:18:51;32.20;35.50
53314;DHT22;39202;51.468;7.146;2022-07-03T21:23:53;32.20;35.60
53314;DHT22;39202;51.468;7.146;2022-07-03T21:28:57;32.20;35.60
53314;DHT22;39202;51.468;7.146;2022-07-03T21:33:59;32.20;35.70
53314;DHT22;39202;51.468;7.146;2022-07-03T21:39:02;32.10;35.60
53314;DHT22;39202;51.468;7.146;2022-07-03T21:44:05;32.20;35.70
53314;DHT22;39202;51.468;7.146;2022-07-03T21:49:07;32.10;35.80
53314;DHT22;39202;51.468;7.146;2022-07-03T21:54:11;32.10;35.80
53314;DHT22;39202;51.468;7.146;2022-07-03T21:59:15;32.10;35.80
53314;DHT22;39202;51.468;7.146;2022-07-03T22:04:16;32.10;35.90
53314;DHT22;39202;51.468;7.146;2022-07-03T22:09:19;32.10;35.90
53314;DHT22;39202;51.468;7.146;2022-07-03T22:14:35;32.00;35.90
53314;DHT22;39202;51.468;7.146;2022-07-03T22:19:37;32.00;35.90
53314;DHT22;39202;51.468;7.146;2022-07-03T22:24:39;32.00;36.00
53314;DHT22;39202;51.468;7.146;2022-07-03T22:29:42;32.00;36.00
53314;DHT22;39202;51.468;7.146;2022-07-03T22:34:44;32.00;36.00
53314;DHT22;39202;51.468;7.146;2022-07-03T22:39:46;32.00;36.00
53314;DHT22;39202;51.468;7.146;2022-07-03T22:44:49;31.90;36.00
53314;DHT22;39202;51.468;7.146;2022-07-03T22:49:51;31.90;36.00
53314;DHT22;39202;51.468;7.146;2022-07-03T22:54:53;31.90;36.00
53314;DHT22;39202;51.468;7.146;2022-07-03T22:59:56;31.90;36.10
53314;DHT22;39202;51.468;7.146;2022-07-03T23:04:57;31.90;36.10
53314;DHT22;39202;51.468;7.146;2022-07-03T23:09:59;31.90;36.10
53314;DHT22;39202;51.468;7.146;2022-07-03T23:15:03;31.90;36.20
53314;DHT22;39202;51.468;7.146;2022-07-03T23:20:06;31.90;36.20
53314;DHT22;39202;51.468;7.146;2022-07-03T23:25:09;31.90;36.90
53314;DHT22;39202;51.468;7.146;2022-07-03T23:30:12;31.80;36.20
53314;DHT22;39202;51.468;7.146;2022-07-03T23:35:14;31.90;36.30
53314;DHT22;39202;51.468;7.146;2022-07-03T23:40:16;31.80;36.20
53314;DHT22;39202;51.468;7.146;2022-07-03T23:45:19;31.80;36.30
53314;DHT22;39202;51.468;7.146;2022-07-03T23:50:21;31.80;36.30
53314;DHT22;39202;51.468;7.146;2022-07-03T23:55:37;31.80;36.40
